createdAt,value
2022-07-26T00:04:05.444Z,298.02299
2022-07-26T00:09:07.135Z,302.13953
2022-07-26T00:14:09.427Z,292.0226
2022-07-26T00:19:11.135Z,286.22222
2022-07-26T00:24:12.693Z,290.06742
2022-07-26T00:29:14.660Z,294
2022-07-26T00:34:16.217Z,292.0226
2022-07-26T00:39:18.223Z,288.13408
2022-07-26T00:44:20.286Z,294
2022-07-26T00:49:21.759Z,300.06936
2022-07-26T00:54:23.294Z,302.13953
2022-07-26T00:59:24.877Z,304.23392
2022-07-26T01:04:26.392Z,310.66667
2022-07-26T01:09:27.804Z,317.33333
2022-07-26T01:14:30.015Z,324.24691
2022-07-26T01:19:31.769Z,329
2022-07-26T01:24:33.344Z,336.35669
2022-07-26T01:29:36.378Z,326.6087
2022-07-26T01:34:38.178Z,329
2022-07-26T01:39:39.827Z,324.24691
2022-07-26T01:44:41.578Z,312.86228
2022-07-26T01:49:43.192Z,312.86228
2022-07-26T01:54:44.717Z,306.35294
2022-07-26T01:59:46.455Z,306.35294
2022-07-26T02:04:48.012Z,308.49704
2022-07-26T02:09:49.658Z,315.08434
2022-07-26T02:14:51.615Z,321.91411
2022-07-26T02:19:53.284Z,326.6087
2022-07-26T02:24:54.757Z,336.35669
2022-07-26T02:29:56.379Z,338.87179
2022-07-26T02:34:57.830Z,349.26316
2022-07-26T02:39:59.366Z,363.04762
2022-07-26T02:45:01.364Z,374.76923
2022-07-26T02:50:02.835Z,393.63504
2022-07-26T02:55:04.254Z,390.37681
2022-07-26T03:00:05.717Z,377.80282
2022-07-26T03:05:07.250Z,365.91781
2022-07-26T03:10:08.702Z,380.87943
2022-07-26T03:15:10.432Z,400.2963
2022-07-26T03:20:11.987Z,410.66667
2022-07-26T03:25:13.666Z,440.77419
2022-07-26T03:30:15.213Z,466.0339
2022-07-26T03:35:16.647Z,509.13761
2022-07-26T03:40:18.302Z,542.05825
2022-07-26T03:45:20.115Z,553.90099
2022-07-26T03:50:21.601Z,560
2022-07-26T03:55:23.055Z,566.22222
2022-07-26T04:00:24.910Z,572.57143
2022-07-26T04:05:26.435Z,572.57143
2022-07-26T04:10:29.686Z,566.22222
2022-07-26T04:15:31.469Z,553.90099
2022-07-26T04:20:32.929Z,560
2022-07-26T04:25:38.620Z,560
2022-07-26T04:30:43.194Z,547.92157
2022-07-26T04:35:44.885Z,542.05825
2022-07-26T04:40:46.490Z,530.66667
2022-07-26T04:45:48.387Z,509.13761
2022-07-26T04:50:49.923Z,504
2022-07-26T04:55:51.346Z,504
2022-07-26T05:01:10.293Z,489.13274
2022-07-26T05:06:12.361Z,519.70093
2022-07-26T05:11:13.799Z,514.37037
2022-07-26T05:16:15.478Z,525.13208
2022-07-26T05:21:16.966Z,519.70093
2022-07-26T05:26:18.442Z,504
2022-07-26T05:31:20.496Z,519.70093
2022-07-26T05:36:22.039Z,530.66667
2022-07-26T05:41:23.501Z,489.13274
2022-07-26T05:46:25.418Z,572.57143
2022-07-26T05:51:27.146Z,599.31915
2022-07-26T05:56:29.384Z,592.42105
2022-07-26T06:01:30.873Z,585.66667
2022-07-26T06:06:34.549Z,585.66667
2022-07-26T06:11:36.164Z,592.42105
2022-07-26T06:16:39.057Z,585.66667
2022-07-26T06:21:40.549Z,579.05155
2022-07-26T06:26:42.087Z,592.42105
2022-07-26T06:31:43.783Z,599.31915
2022-07-26T06:36:45.297Z,592.42105
2022-07-26T06:41:46.760Z,585.66667
2022-07-26T06:46:48.432Z,566.22222
2022-07-26T06:51:49.968Z,566.22222
2022-07-26T06:56:51.745Z,566.22222
2022-07-26T07:01:58.996Z,553.90099
2022-07-26T07:07:01.771Z,519.70093
2022-07-26T07:12:10.390Z,542.05825
2022-07-26T07:17:15.950Z,572.57143
2022-07-26T07:22:20.094Z,585.66667
2022-07-26T07:27:21.862Z,560
2022-07-26T07:32:24.804Z,566.22222
2022-07-26T07:37:27.949Z,606.36559
2022-07-26T07:42:54.741Z,553.90099
2022-07-26T07:47:56.383Z,553.90099
2022-07-26T07:52:59.206Z,579.05155
2022-07-26T07:58:01.041Z,592.42105
2022-07-26T08:03:02.649Z,599.31915
2022-07-26T08:08:04.095Z,613.56522
2022-07-26T08:13:09.526Z,620.92308
2022-07-26T08:18:12.916Z,599.31915
2022-07-26T08:23:15.669Z,606.36559
2022-07-26T08:28:37.508Z,613.56522
2022-07-26T08:33:40.777Z,606.36559
2022-07-26T08:38:42.540Z,599.31915
2022-07-26T08:43:51.879Z,599.31915
2022-07-26T08:48:55.711Z,628.44444
2022-07-26T08:54:04.141Z,606.36559
2022-07-26T08:59:07.580Z,585.66667
2022-07-26T09:04:09.605Z,620.92308
2022-07-26T09:09:11.576Z,644
2022-07-26T09:14:13.167Z,677.33333
2022-07-26T09:19:15.168Z,652.04598
2022-07-26T09:24:16.608Z,723.74684
2022-07-26T09:29:18.025Z,668.70588
2022-07-26T09:34:20.159Z,723.74684
2022-07-26T09:39:22.850Z,765.33333
2022-07-26T09:44:37.491Z,754.52632
2022-07-26T09:49:49.817Z,765.33333
2022-07-26T09:54:51.405Z,733.74359
2022-07-26T09:59:53.062Z,776.43243
2022-07-26T10:04:54.831Z,836.75362
2022-07-26T10:09:56.297Z,787.83562
2022-07-26T10:14:59.509Z,799.55556
2022-07-26T10:20:01.575Z,863.40299
2022-07-26T10:25:03.136Z,906.5
2022-07-26T10:30:04.605Z,937.54839
2022-07-26T10:35:06.084Z,937.54839
2022-07-26T10:40:07.739Z,891.69231
2022-07-26T10:45:09.199Z,937.54839
2022-07-26T10:50:11.350Z,921.77778
2022-07-26T10:55:12.843Z,1044
2022-07-26T11:00:14.744Z,1024.70175
2022-07-26T11:05:16.257Z,1006.06897
2022-07-26T11:10:18.015Z,1006.06897
2022-07-26T11:15:19.521Z,1106.26415
2022-07-26T11:20:24.213Z,1084.74074
2022-07-26T11:25:29.088Z,1024.70175
2022-07-26T11:30:30.541Z,1176
2022-07-26T11:35:32.167Z,1064
2022-07-26T11:40:33.593Z,1254.6383
2022-07-26T11:45:35.144Z,1151.84314
2022-07-26T11:50:36.784Z,1201.14286
2022-07-26T11:55:38.237Z,1128.61538
2022-07-26T12:00:39.730Z,1151.84314
2022-07-26T12:05:41.524Z,1176
2022-07-26T12:10:43.060Z,1128.61538
2022-07-26T12:15:44.975Z,1201.14286
2022-07-26T12:20:50.619Z,1176
2022-07-26T12:25:54.667Z,1151.84314
2022-07-26T12:30:56.203Z,1201.14286
2022-07-26T12:35:57.757Z,1128.61538
2022-07-26T12:40:59.237Z,1106.26415
2022-07-26T12:46:00.757Z,1151.84314
2022-07-26T12:51:03.135Z,1151.84314
2022-07-26T12:56:04.691Z,1176
2022-07-26T13:01:06.194Z,1106.26415
2022-07-26T13:06:07.848Z,1064
2022-07-26T13:11:09.255Z,1201.14286
2022-07-26T13:16:12.256Z,1176
2022-07-26T13:21:14.657Z,1312.88889
2022-07-26T13:26:16.064Z,1312.88889
2022-07-26T13:31:18.107Z,1254.6383
2022-07-26T13:36:19.847Z,1410.66667
2022-07-26T13:41:21.310Z,1410.66667
2022-07-26T13:46:23.107Z,1254.6383
2022-07-26T13:51:25.167Z,1312.88889
2022-07-26T13:56:26.778Z,1312.88889
2022-07-26T14:01:43.026Z,1312.88889
2022-07-26T14:06:46.594Z,1344
2022-07-26T14:11:48.353Z,1254.6383
2022-07-26T14:16:50.143Z,1128.61538
2022-07-26T14:22:00.157Z,1151.84314
2022-07-26T14:27:02.877Z,1064
2022-07-26T14:32:04.625Z,1106.26415
2022-07-26T14:37:41.647Z,1151.84314
2022-07-26T14:42:46.382Z,1106.26415
2022-07-26T14:47:47.836Z,1044
2022-07-26T14:52:49.453Z,937.54839
2022-07-26T14:57:51.011Z,891.69231
2022-07-26T15:02:52.580Z,863.40299
2022-07-26T15:07:54.203Z,824
2022-07-26T15:12:55.643Z,677.33333
2022-07-26T15:17:57.081Z,765.33333
2022-07-26T15:22:58.939Z,668.70588
2022-07-26T15:28:00.592Z,744
2022-07-26T15:33:02.156Z,744
2022-07-26T15:38:03.730Z,613.56522
2022-07-26T15:43:05.217Z,530.66667
2022-07-26T15:48:14.866Z,514.37037
2022-07-26T15:53:19.063Z,530.66667
2022-07-26T15:58:20.510Z,530.66667
2022-07-26T16:03:21.946Z,479.65217
2022-07-26T16:08:23.446Z,498.95495
2022-07-26T16:13:25.099Z,514.37037
2022-07-26T16:18:26.745Z,509.13761
2022-07-26T16:23:28.646Z,514.37037
2022-07-26T16:28:30.109Z,525.13208
2022-07-26T16:33:31.644Z,519.70093
2022-07-26T16:38:34.358Z,525.13208
2022-07-26T16:43:35.811Z,530.66667
2022-07-26T16:48:37.566Z,519.70093
2022-07-26T16:53:39.500Z,519.70093
2022-07-26T16:58:41.117Z,414.22901
2022-07-26T17:03:42.599Z,498.95495
2022-07-26T17:08:44.366Z,475.03448
2022-07-26T17:13:46.016Z,479.65217
2022-07-26T17:18:47.761Z,489.13274
2022-07-26T17:23:49.689Z,489.13274
2022-07-26T17:28:51.082Z,484.35088
2022-07-26T17:33:52.511Z,407.15789
2022-07-26T17:38:54.701Z,489.13274
2022-07-26T17:43:56.486Z,509.13761
2022-07-26T17:48:58.034Z,489.13274
2022-07-26T17:53:59.808Z,494
2022-07-26T17:59:01.234Z,514.37037
2022-07-26T18:04:02.835Z,525.13208
2022-07-26T18:09:04.573Z,525.13208
2022-07-26T18:14:06.324Z,613.56522
2022-07-26T18:19:07.988Z,572.57143
2022-07-26T18:24:16.947Z,553.90099
2022-07-26T18:29:19.121Z,536.30769
2022-07-26T18:34:20.736Z,553.90099
2022-07-26T18:39:22.478Z,566.22222
2022-07-26T18:44:23.999Z,599.31915
2022-07-26T18:49:31.215Z,636.13483
2022-07-26T18:54:33.394Z,660.27907
2022-07-26T18:59:34.900Z,660.27907
2022-07-26T19:04:36.500Z,677.33333
2022-07-26T19:09:38.150Z,652.04598
2022-07-26T19:14:39.558Z,668.70588
2022-07-26T19:19:41.025Z,677.33333
2022-07-26T19:24:42.753Z,660.27907
2022-07-26T19:29:44.216Z,668.70588
2022-07-26T19:34:45.696Z,686.16867
2022-07-26T19:39:47.595Z,677.33333
2022-07-26T19:44:49.022Z,606.36559
2022-07-26T19:49:50.531Z,620.92308
2022-07-26T19:54:53.263Z,613.56522
2022-07-26T19:59:54.929Z,592.42105
2022-07-26T20:04:56.433Z,585.66667
2022-07-26T20:09:57.994Z,592.42105
2022-07-26T20:14:59.768Z,572.57143
2022-07-26T20:20:01.165Z,579.05155
2022-07-26T20:25:03.350Z,592.42105
2022-07-26T20:30:05.105Z,579.05155
2022-07-26T20:35:06.545Z,579.05155
2022-07-26T20:40:09.305Z,579.05155
2022-07-26T20:45:11.365Z,579.05155
2022-07-26T20:50:14.480Z,566.22222
2022-07-26T20:55:16.214Z,579.05155
2022-07-26T21:00:17.871Z,572.57143
2022-07-26T21:05:19.445Z,572.57143
2022-07-26T21:10:21.079Z,572.57143
2022-07-26T21:15:22.712Z,566.22222
2022-07-26T21:20:24.338Z,585.66667
2022-07-26T21:25:26.252Z,572.57143
2022-07-26T21:30:27.659Z,572.57143
2022-07-26T21:35:29.330Z,566.22222
2022-07-26T21:40:30.774Z,599.31915
2022-07-26T21:45:32.425Z,572.57143
2022-07-26T21:50:34.063Z,579.05155
2022-07-26T21:55:35.968Z,566.22222
2022-07-26T22:00:37.509Z,560
2022-07-26T22:05:39.282Z,547.92157
2022-07-26T22:10:44.097Z,553.90099
2022-07-26T22:15:45.969Z,547.92157
2022-07-26T22:20:47.563Z,514.37037
2022-07-26T22:25:49.297Z,519.70093
2022-07-26T22:30:50.963Z,494
2022-07-26T22:35:52.400Z,470.49573
2022-07-26T22:40:53.893Z,440.77419
2022-07-26T22:45:55.404Z,425.25
2022-07-26T22:50:56.911Z,410.66667
2022-07-26T22:55:58.647Z,417.84615
2022-07-26T23:01:00.301Z,414.22901
2022-07-26T23:06:01.784Z,417.84615
2022-07-26T23:11:03.911Z,384
2022-07-26T23:16:05.443Z,357.42282
2022-07-26T23:21:07.089Z,331.42138
2022-07-26T23:26:08.777Z,306.35294
2022-07-26T23:31:10.420Z,312.86228
2022-07-26T23:36:12.024Z,310.66667
2022-07-26T23:41:13.509Z,300.06936
2022-07-26T23:46:15.101Z,304.23392
2022-07-26T23:51:16.823Z,304.23392
2022-07-26T23:56:18.657Z,298.02299
